Time;durP1;ratioP1;P1;durP2;ratioP2;P2;SDS_P1;SDS_P2;PMS_P1;PMS_P2;Temp;Humidity;BMP_temperature;BMP_pressure;BME280_temperature;BME280_humidity;BME280_pressure;Samples;Min_cycle;Max_cycle;Signal;HPM_P1;HPM_P2
2021/06/21 06:39:18;;;;;;;;;11.75;11.00;;;;;;;;3588827;39;112230;-77
2021/06/21 06:41:45;;;;;;;;;11.25;11.25;;;;;;;;3576659;39;113803;-85
2021/06/21 06:44:11;;;;;;;;;14.50;13.50;;;;;;;;3576978;39;112183;-78
2021/06/21 06:46:38;;;;;;;;;12.25;10.00;;;;;;;;3577438;39;113226;-78
2021/06/21 06:49:04;;;;;;;;;13.00;11.00;;;;;;;;3577810;39;114070;-80
2021/06/21 06:51:35;;;;;;;;;10.25;10.25;;;;;;;;3578411;39;113535;-79
2021/06/21 06:54:04;;;;;;;;;15.25;13.25;;;;;;;;3575574;39;113103;-75
2021/06/21 06:59:17;;;;;;;;;14.00;12.00;;;;;;;;3579577;39;113146;-70
2021/06/21 07:01:45;;;;;;;;;10.00;8.00;;;;;;;;3576344;39;113921;-70
2021/06/21 07:04:11;;;;;;;;;11.00;9.33;;;;;;;;3576422;39;112210;-70
2021/06/21 07:06:38;;;;;;;;;10.00;10.00;;;;;;;;3577481;39;112452;-78
2021/06/21 07:09:05;;;;;;;;;11.00;9.67;;;;;;;;3576983;39;113721;-77
2021/06/21 07:11:35;;;;;;;;;15.33;10.33;;;;;;;;3577859;39;111973;-76
2021/06/21 07:14:02;;;;;;;;;7.00;7.00;;;;;;;;3577941;39;113328;-75
2021/06/21 07:16:28;;;;;;;;;8.67;8.33;;;;;;;;3577194;39;113927;-79
2021/06/21 07:18:55;;;;;;;;;8.67;8.67;;;;;;;;3576059;39;112057;-75
2021/06/21 07:21:21;;;;;;;;;12.00;8.33;;;;;;;;3580109;39;113303;-72
2021/06/21 07:23:48;;;;;;;;;11.00;9.00;;;;;;;;3577472;39;111782;-73
2021/06/21 07:26:15;;;;;;;;;8.67;8.67;;;;;;;;3576617;39;113358;-75
2021/06/21 07:28:43;;;;;;;;;10.00;8.67;;;;;;;;3576563;39;113996;-73
2021/06/21 07:31:09;;;;;;;;;7.00;7.00;;;;;;;;3576233;39;112252;-77
2021/06/21 07:33:36;;;;;;;;;9.33;9.00;;;;;;;;3577059;39;113700;-81
2021/06/21 07:36:03;;;;;;;;;10.00;9.33;;;;;;;;3575275;39;112886;-75
2021/06/21 07:38:29;;;;;;;;;11.67;8.67;;;;;;;;3577539;39;112135;-76
2021/06/21 07:40:56;;;;;;;;;10.67;8.00;;;;;;;;3577212;39;113142;-77
2021/06/21 07:43:22;;;;;;;;;9.00;7.33;;;;;;;;3578270;39;113875;-81
2021/06/21 07:45:50;;;;;;;;;10.67;8.00;;;;;;;;3578636;39;113251;-81
2021/06/21 07:48:20;;;;;;;;;9.33;9.33;;;;;;;;3577722;39;114455;-82
2021/06/21 07:50:47;;;;;;;;;10.00;9.00;;;;;;;;3568448;39;111859;-80
2021/06/21 07:53:13;;;;;;;;;8.67;8.67;;;;;;;;3571110;39;113854;-78
2021/06/21 07:55:41;;;;;;;;;10.00;10.00;;;;;;;;3572383;39;114013;-74
2021/06/21 07:58:07;;;;;;;;;9.00;9.00;;;;;;;;3573182;39;111915;-77
2021/06/21 08:00:38;;;;;;;;;10.00;9.00;;;;;;;;3574141;39;113319;-81
2021/06/21 08:03:10;;;;;;;;;10.67;10.33;;;;;;;;3570087;39;114379;-73
2021/06/21 08:05:37;;;;;;;;;6.67;6.67;;;;;;;;3571819;39;112307;-75
2021/06/21 08:08:03;;;;;;;;;9.33;9.33;;;;;;;;3570103;39;113829;-80
2021/06/21 08:10:30;;;;;;;;;9.33;8.67;;;;;;;;3568574;39;111928;-78
2021/06/21 08:12:56;;;;;;;;;9.67;9.67;;;;;;;;3568850;39;113159;-83
2021/06/21 08:15:23;;;;;;;;;10.00;9.00;;;;;;;;3569871;39;113910;-76
2021/06/21 08:17:50;;;;;;;;;14.00;10.67;;;;;;;;3568486;39;111922;-76
2021/06/21 08:20:18;;;;;;;;;9.67;9.00;;;;;;;;3569605;39;113345;-79
2021/06/21 08:22:44;;;;;;;;;10.67;8.33;;;;;;;;3568051;39;114560;-72
2021/06/21 08:25:11;;;;;;;;;11.67;10.67;;;;;;;;3570639;39;111872;-87
2021/06/21 08:27:38;;;;;;;;;12.67;11.67;;;;;;;;3571719;39;112675;-79
2021/06/21 08:30:05;;;;;;;;;18.00;15.33;;;;;;;;3571080;39;111831;-78
2021/06/21 08:32:32;;;;;;;;;11.00;9.33;;;;;;;;3573750;39;113193;-80
2021/06/21 08:34:59;;;;;;;;;35.00;29.00;;;;;;;;3570315;39;113845;-72
2021/06/21 08:37:26;;;;;;;;;34.00;28.00;;;;;;;;3568716;39;111967;-77
2021/06/21 08:39:53;;;;;;;;;37.33;32.67;;;;;;;;3569457;39;113385;-77
2021/06/21 08:42:20;;;;;;;;;27.00;23.33;;;;;;;;3565546;39;113362;-74
2021/06/21 08:44:47;;;;;;;;;70.25;61.75;;;;;;;;3568138;39;111978;-73
2021/06/21 08:47:17;;;;;;;;;78.50;73.25;;;;;;;;3568566;39;113363;-73
2021/06/21 08:49:45;;;;;;;;;26.00;26.00;;;;;;;;3570735;39;112181;-72
2021/06/21 08:52:12;;;;;;;;;29.00;26.67;;;;;;;;3568544;39;113222;-72
2021/06/21 08:54:41;;;;;;;;;8.75;8.75;;;;;;;;3567900;39;114013;-70
2021/06/21 08:57:08;;;;;;;;;95.75;88.75;;;;;;;;3568648;39;112108;-70
2021/06/21 08:59:34;;;;;;;;;73.75;68.75;;;;;;;;3568254;39;113319;-70
2021/06/21 09:02:01;;;;;;;;;158.50;150.25;;;;;;;;3563858;39;112997;-72
2021/06/21 09:04:28;;;;;;;;;10.00;10.00;;;;;;;;3567466;39;111909;-73
2021/06/21 09:07:14;;;;;;;;;22.33;21.00;;;;;;;;3569872;39;114120;-68
2021/06/21 09:09:42;;;;;;;;;10.50;10.00;;;;;;;;3574127;39;113898;-70
2021/06/21 09:12:08;;;;;;;;;12.75;10.50;;;;;;;;3570856;39;113285;-68
2021/06/21 09:14:36;;;;;;;;;15.00;14.67;;;;;;;;3568416;39;112948;-68
2021/06/21 09:17:04;;;;;;;;;16.67;11.33;;;;;;;;3569748;39;111974;-71
2021/06/21 09:19:31;;;;;;;;;130.00;123.00;;;;;;;;3567193;39;113297;-70
2021/06/21 09:21:58;;;;;;;;;12.00;10.67;;;;;;;;3566275;39;113826;-74
2021/06/21 09:24:26;;;;;;;;;125.67;120.00;;;;;;;;3568950;39;112368;-77
2021/06/21 09:26:55;;;;;;;;;35.33;31.00;;;;;;;;3568333;39;113772;-77
2021/06/21 09:29:33;;;;;;;;;10.33;9.00;;;;;;;;3568815;39;114043;-75
2021/06/21 09:31:59;;;;;;;;;16.67;14.67;;;;;;;;3570324;39;112765;-75
2021/06/21 09:34:27;;;;;;;;;15.67;13.67;;;;;;;;3569586;39;113906;-77
2021/06/21 09:36:54;;;;;;;;;95.25;85.75;;;;;;;;3569382;39;112084;-75
2021/06/21 09:39:24;;;;;;;;;53.75;44.25;;;;;;;;3564951;39;112755;-76
2021/06/21 09:42:06;;;;;;;;;13.33;12.00;;;;;;;;3568945;39;115838;-76
2021/06/21 09:44:34;;;;;;;;;10.00;9.67;;;;;;;;3567387;39;113903;-88
2021/06/21 09:47:24;;;;;;;;;14.33;12.67;;;;;;;;3569676;39;113937;-81
2021/06/21 09:50:14;;;;;;;;;9.00;8.67;;;;;;;;3568835;39;113840;-76
2021/06/21 09:52:42;;;;;;;;;10.00;10.00;;;;;;;;3568799;39;111799;-74
2021/06/21 09:55:30;;;;;;;;;14.67;14.33;;;;;;;;3572843;39;113696;-73
2021/06/21 09:58:18;;;;;;;;;9.00;9.00;;;;;;;;3564867;39;112114;-75
2021/06/21 10:00:46;;;;;;;;;10.33;10.33;;;;;;;;3567404;39;113417;-74
2021/06/21 10:03:14;;;;;;;;;13.33;11.33;;;;;;;;3568542;39;113824;-74
2021/06/21 10:05:43;;;;;;;;;10.33;9.67;;;;;;;;3571351;39;112138;-73
2021/06/21 10:08:10;;;;;;;;;12.33;11.00;;;;;;;;3565246;39;112660;-78
2021/06/21 10:10:39;;;;;;;;;12.67;11.67;;;;;;;;3569725;39;113906;-80
2021/06/21 10:13:06;;;;;;;;;12.00;10.00;;;;;;;;3569619;39;111832;-77
2021/06/21 10:15:34;;;;;;;;;11.00;9.67;;;;;;;;3569688;39;113280;-76
2021/06/21 10:18:03;;;;;;;;;14.33;11.00;;;;;;;;3572550;39;113883;-75
2021/06/21 10:20:30;;;;;;;;;11.67;11.67;;;;;;;;3568290;39;113229;-72
2021/06/21 10:22:57;;;;;;;;;14.00;13.00;;;;;;;;3571147;39;115320;-74
2021/06/21 10:25:24;;;;;;;;;11.67;10.00;;;;;;;;3570262;39;114871;-76
2021/06/21 10:27:50;;;;;;;;;11.00;10.00;;;;;;;;3572433;39;113440;-77
2021/06/21 10:30:18;;;;;;;;;14.33;13.00;;;;;;;;3572634;39;113850;-77
2021/06/21 10:32:47;;;;;;;;;11.33;9.00;;;;;;;;3571993;39;111903;-80
2021/06/21 10:35:17;;;;;;;;;11.67;10.00;;;;;;;;3572948;39;113389;-77
2021/06/21 10:37:58;;;;;;;;;12.33;9.33;;;;;;;;3572361;39;114222;-78
2021/06/21 10:40:25;;;;;;;;;13.33;11.00;;;;;;;;3574009;39;113071;-78
2021/06/21 10:42:51;;;;;;;;;13.33;12.67;;;;;;;;3572358;39;114000;-76
2021/06/21 10:45:19;;;;;;;;;30.00;28.00;;;;;;;;3572768;39;112115;-74
2021/06/21 10:47:46;;;;;;;;;36.67;33.00;;;;;;;;3571835;39;112864;-75
2021/06/21 10:50:21;;;;;;;;;37.75;33.25;;;;;;;;3571964;39;114635;-73
2021/06/21 10:52:56;;;;;;;;;29.00;28.00;;;;;;;;3571937;39;111876;-75
2021/06/21 10:55:35;;;;;;;;;23.33;21.33;;;;;;;;3570098;39;112267;-74
2021/06/21 10:58:02;;;;;;;;;15.33;12.00;;;;;;;;3572161;39;114037;-73
2021/06/21 11:00:32;;;;;;;;;12.00;11.00;;;;;;;;3574224;39;111913;-72
2021/06/21 11:02:59;;;;;;;;;25.00;23.67;;;;;;;;3571670;39;113786;-72
2021/06/21 11:05:34;;;;;;;;;25.00;23.00;;;;;;;;3572460;39;112277;-74
2021/06/21 11:08:14;;;;;;;;;21.67;20.00;;;;;;;;3570762;39;113104;-74
2021/06/21 11:10:40;;;;;;;;;16.00;16.00;;;;;;;;3567620;39;114023;-75
2021/06/21 11:13:22;;;;;;;;;17.67;14.67;;;;;;;;3568681;39;112227;-75
2021/06/21 11:16:03;;;;;;;;;16.00;11.67;;;;;;;;3568539;39;113506;-75
2021/06/21 11:18:29;;;;;;;;;13.33;12.33;;;;;;;;3567026;39;112811;-76
2021/06/21 11:21:12;;;;;;;;;13.00;10.33;;;;;;;;3569068;39;112657;-77
2021/06/21 11:23:39;;;;;;;;;10.00;10.00;;;;;;;;3570254;39;113233;-77
2021/06/21 11:26:06;;;;;;;;;16.00;13.67;;;;;;;;3572269;39;112975;-77
2021/06/21 11:28:36;;;;;;;;;15.67;14.00;;;;;;;;3569955;39;113330;-76
2021/06/21 11:31:21;;;;;;;;;12.67;12.67;;;;;;;;3567854;39;112841;-77
2021/06/21 11:33:51;;;;;;;;;14.00;12.00;;;;;;;;3570204;39;113165;-77
2021/06/21 11:36:32;;;;;;;;;16.00;15.00;;;;;;;;3572684;39;113409;-77
2021/06/21 11:39:17;;;;;;;;;12.00;12.00;;;;;;;;3568977;39;114082;-77
2021/06/21 11:41:51;;;;;;;;;14.00;11.00;;;;;;;;3571306;39;111953;-78
2021/06/21 11:44:37;;;;;;;;;13.00;13.00;;;;;;;;3568922;39;113298;-78
2021/06/21 11:47:17;;;;;;;;;12.67;12.33;;;;;;;;3570664;39;113939;-78
2021/06/21 11:49:44;;;;;;;;;10.00;9.33;;;;;;;;3573195;39;113346;-80
2021/06/21 11:52:11;;;;;;;;;12.00;10.33;;;;;;;;3569323;39;114049;-78
2021/06/21 11:54:41;;;;;;;;;11.00;10.33;;;;;;;;3568777;39;111852;-78
2021/06/21 11:57:08;;;;;;;;;9.00;8.33;;;;;;;;3570607;39;113340;-78
2021/06/21 11:59:36;;;;;;;;;11.00;9.67;;;;;;;;3569972;39;114022;-79
2021/06/21 12:02:03;;;;;;;;;11.33;10.00;;;;;;;;3571049;39;112555;-80
2021/06/21 12:04:30;;;;;;;;;14.67;12.67;;;;;;;;3570762;39;115722;-80
2021/06/21 12:06:57;;;;;;;;;11.00;11.00;;;;;;;;3568271;39;114228;-81
2021/06/21 12:09:24;;;;;;;;;11.67;11.67;;;;;;;;3572105;39;112428;-78
2021/06/21 12:11:53;;;;;;;;;11.67;11.67;;;;;;;;3568687;39;113042;-79
2021/06/21 12:14:21;;;;;;;;;13.00;11.33;;;;;;;;3567160;39;111811;-83
2021/06/21 12:16:48;;;;;;;;;12.33;12.33;;;;;;;;3573882;39;113374;-79
2021/06/21 12:19:14;;;;;;;;;13.33;11.00;;;;;;;;3571652;39;114196;-77
2021/06/21 12:21:41;;;;;;;;;15.33;13.33;;;;;;;;3573504;39;111944;-78
2021/06/21 12:24:18;;;;;;;;;14.00;11.00;;;;;;;;3573752;39;113380;-75
2021/06/21 12:26:46;;;;;;;;;14.67;11.00;;;;;;;;3571703;39;114349;-75
2021/06/21 12:29:30;;;;;;;;;15.33;12.00;;;;;;;;3570575;39;113067;-75
2021/06/21 12:31:59;;;;;;;;;12.33;10.00;;;;;;;;3574056;39;113143;-74
2021/06/21 12:34:46;;;;;;;;;10.67;10.00;;;;;;;;3573611;39;111832;-75
2021/06/21 12:37:16;;;;;;;;;16.67;11.00;;;;;;;;3571649;39;113373;-75
2021/06/21 12:39:43;;;;;;;;;14.00;11.00;;;;;;;;3568642;39;112690;-74
2021/06/21 12:42:11;;;;;;;;;16.67;15.33;;;;;;;;3569264;39;112291;-76
2021/06/21 12:44:39;;;;;;;;;14.00;13.33;;;;;;;;3570062;39;113378;-76
2021/06/21 12:47:15;;;;;;;;;13.67;12.00;;;;;;;;3569870;39;114005;-72
2021/06/21 12:49:42;;;;;;;;;12.00;12.00;;;;;;;;3569213;39;111787;-73
2021/06/21 12:52:09;;;;;;;;;15.00;11.33;;;;;;;;3570881;39;113325;-73
2021/06/21 12:54:35;;;;;;;;;13.33;13.33;;;;;;;;3571909;39;114938;-79
2021/06/21 12:57:02;;;;;;;;;15.33;14.00;;;;;;;;3572138;39;113406;-77
2021/06/21 12:59:29;;;;;;;;;15.00;12.00;;;;;;;;3571813;39;114014;-79
2021/06/21 13:01:58;;;;;;;;;15.33;13.00;;;;;;;;3570712;39;111875;-78
2021/06/21 13:04:24;;;;;;;;;11.33;11.00;;;;;;;;3569787;39;113413;-84
2021/06/21 13:06:55;;;;;;;;;14.33;12.67;;;;;;;;3571096;39;113843;-77
2021/06/21 13:09:23;;;;;;;;;14.00;12.00;;;;;;;;3570515;39;111944;-78
2021/06/21 13:11:51;;;;;;;;;15.00;13.00;;;;;;;;3570026;39;113600;-77
2021/06/21 13:14:18;;;;;;;;;16.33;15.33;;;;;;;;3570548;39;113829;-77
2021/06/21 13:16:45;;;;;;;;;14.33;13.00;;;;;;;;3571907;39;113112;-78
2021/06/21 13:19:14;;;;;;;;;14.33;13.67;;;;;;;;3570736;39;114268;-79
2021/06/21 13:21:42;;;;;;;;;42.00;35.75;;;;;;;;3568201;39;112224;-75
2021/06/21 13:24:08;;;;;;;;;31.33;27.33;;;;;;;;3569829;39;113130;-77
2021/06/21 13:26:37;;;;;;;;;19.00;15.00;;;;;;;;3570892;39;114209;-77
2021/06/21 13:29:20;;;;;;;;;17.00;14.00;;;;;;;;3570982;39;111964;-72
2021/06/21 13:31:47;;;;;;;;;22.33;21.00;;;;;;;;3569604;39;112593;-76
2021/06/21 13:34:35;;;;;;;;;21.33;19.00;;;;;;;;3570007;39;113514;-77
2021/06/21 13:37:02;;;;;;;;;22.67;20.33;;;;;;;;3568952;39;112294;-77
2021/06/21 13:39:28;;;;;;;;;18.67;17.67;;;;;;;;3567943;39;114155;-77
2021/06/21 13:41:58;;;;;;;;;17.67;17.00;;;;;;;;3567123;39;111993;-78
2021/06/21 13:44:25;;;;;;;;;19.00;17.00;;;;;;;;3566938;39;113598;-78
2021/06/21 13:46:52;;;;;;;;;18.00;14.33;;;;;;;;3568074;39;113992;-77
2021/06/21 13:49:21;;;;;;;;;22.67;21.00;;;;;;;;3568737;39;112413;-77
2021/06/21 13:51:55;;;;;;;;;24.00;23.00;;;;;;;;3568372;39;113455;-77
2021/06/21 13:54:24;;;;;;;;;18.00;17.33;;;;;;;;3569637;39;115539;-77
2021/06/21 13:56:50;;;;;;;;;15.33;15.00;;;;;;;;3570182;39;112078;-77
2021/06/21 13:59:18;;;;;;;;;18.67;16.33;;;;;;;;3571707;39;113273;-77
2021/06/21 14:01:52;;;;;;;;;27.33;25.67;;;;;;;;3568414;39;112386;-77
2021/06/21 14:04:21;;;;;;;;;29.00;25.33;;;;;;;;3569550;39;113381;-78
2021/06/21 14:06:49;;;;;;;;;28.00;21.67;;;;;;;;3567735;39;113764;-77
2021/06/21 14:09:17;;;;;;;;;15.33;14.00;;;;;;;;3569414;39;112423;-77
2021/06/21 14:11:44;;;;;;;;;19.00;17.33;;;;;;;;3568618;39;113212;-78
2021/06/21 14:14:10;;;;;;;;;17.33;16.00;;;;;;;;3568367;39;113801;-78
2021/06/21 14:16:37;;;;;;;;;20.00;18.67;;;;;;;;3569085;39;112149;-77
2021/06/21 14:19:04;;;;;;;;;18.33;16.00;;;;;;;;3568481;39;112806;-77
2021/06/21 14:21:32;;;;;;;;;14.00;12.67;;;;;;;;3571335;39;113747;-77
2021/06/21 14:23:58;;;;;;;;;20.33;19.00;;;;;;;;3568173;39;113801;-76
2021/06/21 14:26:26;;;;;;;;;26.00;23.67;;;;;;;;3569099;39;113985;-76
2021/06/21 14:28:53;;;;;;;;;16.00;15.33;;;;;;;;3568040;39;111939;-76
2021/06/21 14:31:19;;;;;;;;;19.67;19.67;;;;;;;;3569569;39;113492;-77
2021/06/21 14:33:49;;;;;;;;;21.67;20.00;;;;;;;;3567781;39;113864;-77
2021/06/21 14:36:15;;;;;;;;;18.50;17.50;;;;;;;;3569224;39;111736;-77
2021/06/21 14:38:43;;;;;;;;;18.67;16.00;;;;;;;;3568512;39;113283;-76
2021/06/21 14:41:10;;;;;;;;;21.00;18.33;;;;;;;;3568045;39;113894;-76
2021/06/21 14:43:37;;;;;;;;;19.00;17.00;;;;;;;;3571474;39;112297;-76
2021/06/21 14:46:04;;;;;;;;;20.00;18.67;;;;;;;;3567967;39;113892;-77
2021/06/21 14:48:31;;;;;;;;;13.33;13.33;;;;;;;;3569009;39;111979;-77
2021/06/21 14:51:01;;;;;;;;;16.00;16.00;;;;;;;;3568079;39;113345;-78
2021/06/21 14:53:27;;;;;;;;;15.67;15.33;;;;;;;;3566718;39;114427;-77
2021/06/21 14:55:55;;;;;;;;;22.00;20.00;;;;;;;;3567878;39;112334;-77
2021/06/21 14:58:22;;;;;;;;;18.67;16.67;;;;;;;;3567629;39;113454;-78
2021/06/21 15:00:48;;;;;;;;;17.67;13.67;;;;;;;;3569915;39;113998;-77
2021/06/21 15:03:15;;;;;;;;;16.67;16.00;;;;;;;;3569196;39;111772;-76
2021/06/21 15:05:44;;;;;;;;;21.67;17.33;;;;;;;;3568811;39;112279;-77
2021/06/21 15:08:11;;;;;;;;;16.33;15.67;;;;;;;;3569783;39;111777;-77
2021/06/21 15:10:38;;;;;;;;;14.67;14.67;;;;;;;;3569927;39;113674;-76
2021/06/21 15:13:06;;;;;;;;;17.67;16.67;;;;;;;;3569152;39;113941;-76
2021/06/21 15:15:34;;;;;;;;;17.00;17.00;;;;;;;;3569993;39;111831;-76
2021/06/21 15:18:01;;;;;;;;;20.00;17.00;;;;;;;;3569156;39;113240;-76
2021/06/21 15:20:29;;;;;;;;;17.67;14.33;;;;;;;;3569933;39;113851;-77
2021/06/21 15:22:56;;;;;;;;;16.00;14.00;;;;;;;;3565402;39;111853;-76
2021/06/21 15:25:23;;;;;;;;;21.67;16.00;;;;;;;;3572858;39;113172;-76
2021/06/21 15:27:50;;;;;;;;;15.67;12.67;;;;;;;;3568822;39;111976;-75
2021/06/21 15:30:19;;;;;;;;;16.00;16.00;;;;;;;;3570315;39;113811;-76
2021/06/21 15:32:46;;;;;;;;;20.00;18.00;;;;;;;;3568860;39;113850;-76
2021/06/21 15:35:13;;;;;;;;;24.00;19.67;;;;;;;;3569873;39;112079;-77
2021/06/21 15:37:40;;;;;;;;;16.67;15.00;;;;;;;;3570701;39;113931;-77
2021/06/21 15:40:10;;;;;;;;;20.00;17.33;;;;;;;;3570497;39;113962;-77
2021/06/21 15:42:37;;;;;;;;;17.33;14.67;;;;;;;;3569859;39;112138;-76
2021/06/21 15:45:04;;;;;;;;;16.00;15.00;;;;;;;;3569723;39;113988;-76
2021/06/21 15:47:32;;;;;;;;;19.00;16.00;;;;;;;;3572104;39;113967;-77
2021/06/21 15:49:59;;;;;;;;;20.00;18.33;;;;;;;;3569156;39;113344;-77
2021/06/21 15:52:26;;;;;;;;;18.00;16.00;;;;;;;;3569780;39;113946;-77
2021/06/21 15:54:52;;;;;;;;;15.00;14.33;;;;;;;;3568826;39;111938;-76
2021/06/21 15:57:20;;;;;;;;;19.67;15.33;;;;;;;;3570294;39;113342;-77
2021/06/21 15:59:46;;;;;;;;;21.33;16.00;;;;;;;;3568561;39;113969;-76
2021/06/21 16:02:13;;;;;;;;;20.33;19.33;;;;;;;;3569819;39;112243;-77
2021/06/21 16:04:41;;;;;;;;;24.00;17.33;;;;;;;;3569212;39;112894;-77
2021/06/21 16:07:08;;;;;;;;;13.00;12.00;;;;;;;;3569331;39;114135;-76
2021/06/21 16:09:34;;;;;;;;;18.67;16.67;;;;;;;;3572349;39;112397;-78
2021/06/21 16:12:01;;;;;;;;;18.00;14.67;;;;;;;;3568775;39;114239;-77
2021/06/21 16:14:27;;;;;;;;;18.33;16.00;;;;;;;;3566686;39;112612;-77
2021/06/21 16:16:54;;;;;;;;;18.00;15.00;;;;;;;;3568691;39;113417;-77
2021/06/21 16:19:24;;;;;;;;;16.33;14.00;;;;;;;;3568033;39;114201;-77
2021/06/21 16:21:52;;;;;;;;;15.67;13.67;;;;;;;;3568707;39;111886;-77
2021/06/21 16:24:19;;;;;;;;;18.00;16.67;;;;;;;;3570119;39;113966;-77
2021/06/21 16:26:45;;;;;;;;;15.00;14.67;;;;;;;;3568452;39;113941;-77
2021/06/21 16:29:12;;;;;;;;;23.33;19.00;;;;;;;;3569851;39;112043;-78
2021/06/21 16:31:39;;;;;;;;;17.00;16.00;;;;;;;;3571542;39;113533;-78
2021/06/21 16:34:05;;;;;;;;;22.00;20.33;;;;;;;;3569231;39;111817;-78
2021/06/21 16:36:32;;;;;;;;;17.00;15.67;;;;;;;;3569737;39;113717;-79
2021/06/21 16:39:00;;;;;;;;;18.33;15.00;;;;;;;;3568349;39;113535;-79
2021/06/21 16:41:26;;;;;;;;;14.67;13.67;;;;;;;;3569866;39;111899;-79
2021/06/21 16:43:53;;;;;;;;;17.67;15.67;;;;;;;;3568658;39;113371;-79
2021/06/21 16:46:20;;;;;;;;;21.00;18.67;;;;;;;;3567957;39;113796;-79
2021/06/21 16:48:46;;;;;;;;;15.33;13.33;;;;;;;;3570139;39;112392;-78
2021/06/21 16:51:13;;;;;;;;;15.67;14.00;;;;;;;;3568789;39;113265;-77
2021/06/21 16:53:39;;;;;;;;;16.00;14.00;;;;;;;;3568143;39;113034;-77
2021/06/21 16:56:08;;;;;;;;;16.33;14.67;;;;;;;;3569294;39;114290;-76
2021/06/21 16:58:35;;;;;;;;;19.00;14.00;;;;;;;;3568996;39;115591;-78
2021/06/21 17:01:01;;;;;;;;;17.00;14.33;;;;;;;;3568915;39;111970;-77
2021/06/21 17:03:29;;;;;;;;;19.67;17.67;;;;;;;;3570501;39;113341;-82
2021/06/21 17:05:55;;;;;;;;;18.33;16.33;;;;;;;;3567043;39;114219;-74
2021/06/21 17:08:22;;;;;;;;;20.67;15.00;;;;;;;;3570710;39;112598;-88
2021/06/21 17:10:48;;;;;;;;;15.67;13.00;;;;;;;;3568659;39;113307;-79
2021/06/21 17:13:16;;;;;;;;;16.33;12.33;;;;;;;;3573080;39;113961;-83
2021/06/21 17:15:45;;;;;;;;;14.00;12.00;;;;;;;;3572850;39;113633;-82
2021/06/21 17:18:11;;;;;;;;;13.33;13.00;;;;;;;;3573699;39;113819;-82
2021/06/21 17:20:38;;;;;;;;;17.00;10.67;;;;;;;;3572335;39;112423;-82
2021/06/21 17:23:04;;;;;;;;;15.00;12.33;;;;;;;;3571337;39;113194;-81
2021/06/21 17:25:32;;;;;;;;;14.67;11.00;;;;;;;;3571977;39;114029;-84
2021/06/21 17:27:59;;;;;;;;;13.00;11.00;;;;;;;;3570458;39;115553;-79
2021/06/21 17:30:28;;;;;;;;;15.33;11.67;;;;;;;;3571732;39;113205;-80
2021/06/21 17:32:55;;;;;;;;;13.00;10.00;;;;;;;;3568062;39;114052;-81
2021/06/21 17:35:22;;;;;;;;;14.67;13.67;;;;;;;;3571896;39;112110;-82
2021/06/21 17:37:50;;;;;;;;;15.67;12.67;;;;;;;;3571463;39;114015;-83
2021/06/21 17:40:17;;;;;;;;;14.00;11.00;;;;;;;;3566365;39;111929;-77
2021/06/21 17:42:44;;;;;;;;;13.33;11.00;;;;;;;;3569512;39;113225;-87
2021/06/21 17:45:12;;;;;;;;;11.00;9.67;;;;;;;;3568506;39;114218;-81
2021/06/21 17:47:40;;;;;;;;;13.67;11.00;;;;;;;;3569302;39;111875;-78
2021/06/21 17:50:07;;;;;;;;;15.33;11.67;;;;;;;;3568501;39;113277;-82
2021/06/21 17:52:35;;;;;;;;;14.00;12.00;;;;;;;;3569014;39;114204;-83
2021/06/21 17:55:09;;;;;;;;;16.67;13.33;;;;;;;;3568870;39;111847;-84
2021/06/21 17:57:36;;;;;;;;;15.00;13.00;;;;;;;;3573788;39;113757;-83
2021/06/21 18:00:02;;;;;;;;;15.67;12.00;;;;;;;;3568714;39;112561;-83
2021/06/21 18:02:30;;;;;;;;;10.00;9.00;;;;;;;;3566873;39;117647;-76
2021/06/21 18:04:58;;;;;;;;;16.00;12.33;;;;;;;;3569229;39;114098;-76
2021/06/21 18:07:24;;;;;;;;;11.33;9.33;;;;;;;;3568066;39;111866;-84
2021/06/21 18:09:51;;;;;;;;;15.00;11.67;;;;;;;;3568299;39;113320;-80
2021/06/21 18:12:17;;;;;;;;;16.33;13.33;;;;;;;;3569216;39;114633;-80
2021/06/21 18:14:44;;;;;;;;;13.67;11.67;;;;;;;;3567797;39;112144;-74
2021/06/21 18:17:11;;;;;;;;;13.33;12.33;;;;;;;;3569787;39;113367;-79
2021/06/21 18:19:37;;;;;;;;;17.33;14.00;;;;;;;;3570924;39;113873;-84
2021/06/21 18:22:05;;;;;;;;;14.00;11.33;;;;;;;;3569855;39;113280;-79
2021/06/21 18:24:32;;;;;;;;;16.67;12.33;;;;;;;;3567503;39;113795;-80
2021/06/21 18:26:58;;;;;;;;;14.00;12.33;;;;;;;;3569735;39;112116;-78
2021/06/21 18:29:25;;;;;;;;;12.33;11.00;;;;;;;;3567614;39;113245;-76
2021/06/21 18:31:52;;;;;;;;;14.00;12.67;;;;;;;;3567558;39;114434;-80
2021/06/21 18:34:18;;;;;;;;;15.33;12.00;;;;;;;;3569204;39;112151;-76
2021/06/21 18:36:45;;;;;;;;;16.33;13.00;;;;;;;;3568237;39;114247;-77
2021/06/21 18:39:12;;;;;;;;;14.33;11.67;;;;;;;;3568476;39;114005;-78
2021/06/21 18:41:39;;;;;;;;;15.67;11.67;;;;;;;;3568092;39;112604;-75
2021/06/21 18:44:06;;;;;;;;;13.00;11.67;;;;;;;;3569355;39;113953;-77
2021/06/21 18:46:32;;;;;;;;;10.00;9.67;;;;;;;;3568182;39;112063;-77
2021/06/21 18:48:59;;;;;;;;;13.00;11.00;;;;;;;;3569342;39;113377;-76
2021/06/21 18:51:25;;;;;;;;;15.33;10.67;;;;;;;;3571118;39;114418;-77
2021/06/21 18:53:52;;;;;;;;;18.67;14.00;;;;;;;;3567737;39;111801;-76
2021/06/21 18:56:20;;;;;;;;;17.00;13.67;;;;;;;;3569126;39;113804;-75
2021/06/21 18:58:47;;;;;;;;;16.67;14.00;;;;;;;;3567337;39;113876;-76
2021/06/21 19:01:14;;;;;;;;;19.33;14.33;;;;;;;;3568606;39;112685;-76
2021/06/21 19:03:41;;;;;;;;;16.33;10.00;;;;;;;;3569485;39;113307;-78
2021/06/21 19:06:08;;;;;;;;;12.33;12.00;;;;;;;;3569496;39;113102;-77
2021/06/21 19:08:34;;;;;;;;;17.00;13.00;;;;;;;;3566674;39;113406;-76
2021/06/21 19:11:01;;;;;;;;;13.00;12.00;;;;;;;;3568874;39;113730;-77
2021/06/21 19:13:29;;;;;;;;;13.00;13.00;;;;;;;;3568626;39;112138;-77
2021/06/21 19:15:56;;;;;;;;;15.00;11.67;;;;;;;;3569556;39;113343;-78
2021/06/21 19:18:22;;;;;;;;;13.67;13.00;;;;;;;;3567350;39;114187;-77
2021/06/21 19:20:49;;;;;;;;;19.33;16.33;;;;;;;;3569215;39;111885;-77
2021/06/21 19:23:15;;;;;;;;;19.33;16.67;;;;;;;;3570480;39;113334;-84
2021/06/21 19:25:43;;;;;;;;;13.00;12.67;;;;;;;;3570381;39;111983;-84
2021/06/21 19:28:11;;;;;;;;;17.00;13.00;;;;;;;;3570749;39;113274;-84
2021/06/21 19:30:41;;;;;;;;;13.67;12.00;;;;;;;;3569240;39;114083;-84
2021/06/21 19:33:07;;;;;;;;;12.33;11.00;;;;;;;;3566650;39;112120;-84
2021/06/21 19:35:34;;;;;;;;;8.00;8.00;;;;;;;;3566107;39;113239;-80
2021/06/21 19:38:01;;;;;;;;;14.33;9.00;;;;;;;;3566410;39;113707;-79
2021/06/21 19:40:28;;;;;;;;;14.00;12.33;;;;;;;;3566253;39;113174;-80
2021/06/21 19:42:54;;;;;;;;;10.33;10.33;;;;;;;;3568981;39;113335;-80
2021/06/21 19:45:21;;;;;;;;;10.33;9.00;;;;;;;;3569839;39;114412;-80
2021/06/21 19:47:49;;;;;;;;;13.00;9.00;;;;;;;;3568791;39;113175;-83
2021/06/21 19:50:18;;;;;;;;;12.33;9.00;;;;;;;;3569768;39;115029;-82
2021/06/21 19:52:45;;;;;;;;;11.00;11.00;;;;;;;;3568891;39;113693;-82
2021/06/21 19:55:19;;;;;;;;;12.00;9.67;;;;;;;;3568523;39;113316;-83
2021/06/21 19:57:46;;;;;;;;;12.67;10.33;;;;;;;;3568035;39;114117;-83
2021/06/21 20:00:13;;;;;;;;;12.67;11.67;;;;;;;;3570056;39;113504;-83
2021/06/21 20:02:39;;;;;;;;;11.00;9.00;;;;;;;;3570033;39;113454;-83
2021/06/21 20:05:09;;;;;;;;;12.67;9.33;;;;;;;;3568644;39;114377;-83
2021/06/21 20:07:35;;;;;;;;;7.33;6.33;;;;;;;;3572536;39;111927;-84
2021/06/21 20:10:02;;;;;;;;;12.67;11.00;;;;;;;;3570093;39;113991;-84
2021/06/21 20:12:28;;;;;;;;;10.33;7.67;;;;;;;;3570451;39;111899;-85
2021/06/21 20:14:55;;;;;;;;;12.00;12.00;;;;;;;;3570222;39;113687;-84
2021/06/21 20:17:22;;;;;;;;;11.33;10.33;;;;;;;;3568626;39;113910;-79
2021/06/21 20:19:48;;;;;;;;;13.67;9.00;;;;;;;;3568928;39;112152;-81
2021/06/21 20:22:16;;;;;;;;;10.33;9.33;;;;;;;;3570977;39;113787;-83
2021/06/21 20:24:43;;;;;;;;;11.00;9.00;;;;;;;;3573194;39;113979;-84
2021/06/21 20:27:09;;;;;;;;;11.00;9.33;;;;;;;;3573768;39;112389;-85
2021/06/21 20:29:36;;;;;;;;;9.00;9.00;;;;;;;;3577553;39;113111;-85
2021/06/21 20:32:03;;;;;;;;;13.33;10.67;;;;;;;;3574571;39;111948;-84
2021/06/21 20:34:41;;;;;;;;;13.67;9.00;;;;;;;;3572412;39;113530;-84
2021/06/21 20:37:07;;;;;;;;;15.00;12.00;;;;;;;;3571270;39;114021;-83
2021/06/21 20:39:36;;;;;;;;;12.33;9.67;;;;;;;;3574251;39;113912;-83
2021/06/21 20:42:02;;;;;;;;;13.33;11.00;;;;;;;;3574026;39;113882;-84
2021/06/21 20:44:29;;;;;;;;;13.00;12.00;;;;;;;;3573323;39;113910;-83
2021/06/21 20:46:56;;;;;;;;;17.67;15.00;;;;;;;;3571194;39;112456;-82
2021/06/21 20:49:22;;;;;;;;;17.00;12.33;;;;;;;;3568853;39;112261;-82
2021/06/21 20:51:49;;;;;;;;;14.67;10.67;;;;;;;;3574151;39;115404;-81
2021/06/21 20:54:15;;;;;;;;;16.00;13.67;;;;;;;;3569160;39;113304;-81